Moon Sand — ZGES6 — position and weather

sailwx.info

Track history (hours):
 
Tides and Currents Weather Stations Pressure Air Temp Water Temp Dewpoint Dewpoint Depression Visibility Wind Speed Wind Dir Waves Ship Positions

Moon Sand

Last reported at 2017-Sep-29 06:13 UTC. Time now 2017-Oct-20 07:22 UTC.
Position N 43°37' E 007°17'.
Warning: this ship's position is 21 days out of date.

Length 45 m; draft 2.7 m.

Type: Pleasure craft. MMSI: 319080200.

Date/timePositionNaut miles runAvg speedWind from/ knotsBaromVisibWave heightAir tempDewpointWater temp
2017-Sep-29 06:13N 43°37' E 007°17'310.9
2017-Sep-29 05:58N 43°35' E 007°15'510.3
2017-Sep-29 05:30N 43°32' E 007°10'4 0.3
2017-Sep-28 16:52N 43°32' E 007°05'6 9.9
2017-Sep-28 16:12N 43°35' E 007°13'6 0.7
2017-Sep-28 07:42N 43°39' E 007°19'311.9
2017-Sep-28 07:29N 43°37' E 007°16'611.8
2017-Sep-28 07:00N 43°33' E 007°10'  
2017-Sep-25 05:39N 43°32' E 007°06'110.5
2017-Sep-25 05:31N 43°31' E 007°05'510.1
2017-Sep-25 05:00N 43°26' E 007°02'63 9.8
2017-Sep-24 22:34N 42°37' E 006°08'410.8
2017-Sep-24 22:13N 42°35' E 006°05'210.8
2017-Sep-24 21:59N 42°33' E 006°02'510.6
2017-Sep-24 21:30N 42°29' E 005°57'510.6
2017-Sep-24 21:00N 42°26' E 005°52'510.4
2017-Sep-24 20:30N 42°22' E 005°47'510.0
2017-Sep-24 20:00N 42°19' E 005°42'5 9.8
2017-Sep-24 19:29N 42°15' E 005°37'510.5
2017-Sep-24 19:00N 42°11' E 005°32'510.4
2017-Sep-24 18:30N 42°08' E 005°27'5 9.5
2017-Sep-24 18:00N 42°05' E 005°23'510.3
2017-Sep-24 17:30N 42°01' E 005°18'510.6
2017-Sep-24 17:00N 41°57' E 005°13'510.4
2017-Sep-24 16:29N 41°53' E 005°08'174 9.9
2017-Sep-23 23:00N 39°51' E 002°24'510.1
2017-Sep-23 22:30N 39°47' E 002°20'510.0
2017-Sep-23 21:59N 39°43' E 002°16'5 9.7
2017-Sep-23 21:31N 39°39' E 002°13'4 7.1
2017-Sep-23 21:00N 39°36' E 002°13'610.5
2017-Sep-23 20:27N 39°30' E 002°15'510.5
2017-Sep-23 20:00N 39°27' E 002°20'15 0.4
2017-Sep-22 02:00N 39°34' E 002°38'0 0.0
2017-Sep-22 01:30N 39°34' E 002°38'0 0.0
2017-Sep-22 01:00N 39°34' E 002°38'0 0.0
2017-Sep-22 00:30N 39°34' E 002°38'0 0.0
2017-Sep-22 00:00N 39°34' E 002°38'0 0.0
2017-Sep-21 23:30N 39°34' E 002°38'0 0.0
2017-Sep-21 22:57N 39°34' E 002°38'0 0.0
2017-Sep-21 22:30N 39°34' E 002°38'0 0.0
2017-Sep-21 22:00N 39°34' E 002°38'0 0.0
2017-Sep-21 21:30N 39°34' E 002°38'0 0.0
2017-Sep-21 21:00N 39°34' E 002°38'0 0.0
2017-Sep-21 20:30N 39°34' E 002°38'0 0.0
2017-Sep-21 20:00N 39°34' E 002°38'0 0.0
2017-Sep-21 19:30N 39°34' E 002°38'0 0.0
2017-Sep-21 19:00N 39°34' E 002°38'0 0.0
2017-Sep-21 18:30N 39°34' E 002°38'0 0.0
2017-Sep-21 18:00N 39°34' E 002°38'0 0.0
2017-Sep-21 17:30N 39°34' E 002°38'0 0.0
2017-Sep-21 17:00N 39°34' E 002°38'0 0.0
2017-Sep-21 16:27N 39°34' E 002°38'0 0.0
2017-Sep-21 16:00N 39°34' E 002°38'0 0.0
2017-Sep-21 15:30N 39°34' E 002°38'0 0.0
2017-Sep-21 15:00N 39°34' E 002°38'0 0.0
2017-Sep-21 14:30N 39°34' E 002°38'0 0.0
2017-Sep-21 14:00N 39°34' E 002°38'0 0.0
2017-Sep-21 13:30N 39°34' E 002°38'0 0.0
2017-Sep-21 13:00N 39°34' E 002°38'0 0.0
2017-Sep-21 12:30N 39°34' E 002°38'0 0.0
2017-Sep-21 12:00N 39°34' E 002°38'0 0.0
2017-Sep-21 11:27N 39°34' E 002°38'0 0.0
2017-Sep-21 10:51N 39°34' E 002°38'0 0.0
2017-Sep-21 10:30N 39°34' E 002°38'0 0.0
2017-Sep-21 10:00N 39°34' E 002°38'0 0.0
2017-Sep-21 09:30N 39°34' E 002°38'0 0.0
2017-Sep-21 08:57N 39°34' E 002°38'0 0.0
2017-Sep-21 08:30N 39°34' E 002°38'0 0.0
2017-Sep-21 08:00N 39°34' E 002°38'0 0.0
2017-Sep-21 07:30N 39°34' E 002°38'0 0.0
2017-Sep-21 07:00N 39°34' E 002°38'0 0.0
2017-Sep-21 06:30N 39°34' E 002°38'0 0.0
2017-Sep-21 06:00N 39°34' E 002°38'0 0.0
2017-Sep-21 05:30N 39°34' E 002°38'0 0.0
2017-Sep-21 04:57N 39°34' E 002°38'0 0.0
2017-Sep-21 04:30N 39°34' E 002°38'0 0.0
2017-Sep-21 04:00N 39°34' E 002°38'0 0.0
2017-Sep-21 03:30N 39°34' E 002°38'0 0.0
2017-Sep-21 03:00N 39°34' E 002°38'0 0.0
2017-Sep-21 02:30N 39°34' E 002°38'0 0.0
2017-Sep-21 02:00N 39°34' E 002°38'0 0.0
2017-Sep-21 01:30N 39°34' E 002°38'0 0.0
2017-Sep-21 01:00N 39°34' E 002°38'0 0.0
2017-Sep-21 00:27N 39°34' E 002°38'0 0.0
2017-Sep-21 00:00N 39°34' E 002°38'0 0.0
2017-Sep-20 23:30N 39°34' E 002°38'0 0.0
2017-Sep-20 23:00N 39°34' E 002°38'0 0.0
2017-Sep-20 22:30N 39°34' E 002°38'0 0.0
2017-Sep-20 22:00N 39°34' E 002°38'0 0.0
2017-Sep-20 21:30N 39°34' E 002°38'0 0.0
2017-Sep-20 21:00N 39°34' E 002°38'0 0.0
2017-Sep-20 20:30N 39°34' E 002°38'0 0.0
2017-Sep-20 20:00N 39°34' E 002°38'0 0.0
2017-Sep-20 19:30N 39°34' E 002°38'0 0.0
2017-Sep-20 19:00N 39°34' E 002°38'0 0.0
2017-Sep-20 18:30N 39°34' E 002°38'0 0.0
2017-Sep-20 18:00N 39°34' E 002°38'0 0.0
2017-Sep-20 17:30N 39°34' E 002°38'0 0.0
2017-Sep-20 17:00N 39°34' E 002°38'0 0.0
2017-Sep-20 16:30N 39°34' E 002°38'0 0.0
2017-Sep-20 16:00N 39°34' E 002°38'0 0.0
2017-Sep-20 15:30N 39°34' E 002°38'0 0.0
2017-Sep-20 15:00N 39°34' E 002°38'0 0.0
2017-Sep-20 14:00N 39°34' E 002°38'0 0.0
2017-Sep-20 13:27N 39°34' E 002°38'0 0.0
2017-Sep-20 13:00N 39°34' E 002°38'0 0.0
2017-Sep-20 12:30N 39°34' E 002°38'0 0.0
2017-Sep-20 12:00N 39°34' E 002°38'0 0.0
2017-Sep-20 11:30N 39°34' E 002°38'0 0.0
2017-Sep-20 11:00N 39°34' E 002°38'0 0.0
2017-Sep-20 10:30N 39°34' E 002°38'0 0.0
2017-Sep-20 10:00N 39°34' E 002°38'0 0.0
2017-Sep-20 09:30N 39°34' E 002°38'0 0.0
2017-Sep-20 09:00N 39°34' E 002°38'0 0.0
2017-Sep-20 08:30N 39°34' E 002°38'0 0.0
2017-Sep-20 08:00N 39°34' E 002°38'0 0.0
2017-Sep-20 07:30N 39°34' E 002°38'0 0.0
2017-Sep-20 06:59N 39°34' E 002°38'0 0.0
2017-Sep-20 06:29N 39°34' E 002°38'0 0.0
2017-Sep-20 05:59N 39°34' E 002°38'0 0.0
2017-Sep-20 05:29N 39°34' E 002°38'0 0.0
2017-Sep-20 04:59N 39°34' E 002°38'0 0.0
2017-Sep-20 04:29N 39°34' E 002°38'0 0.0
2017-Sep-20 03:59N 39°34' E 002°38'0 0.0
2017-Sep-20 03:29N 39°34' E 002°38'0 0.0
2017-Sep-20 02:59N 39°34' E 002°38'0 0.0
2017-Sep-20 02:29N 39°34' E 002°38'0 0.0
2017-Sep-20 01:59N 39°34' E 002°38'0 0.0
2017-Sep-20 01:29N 39°34' E 002°38'0 0.0
2017-Sep-20 00:59N 39°34' E 002°38'0 0.0
2017-Sep-20 00:29N 39°34' E 002°38'0 0.0
2017-Sep-19 23:59N 39°34' E 002°38'0 0.0
2017-Sep-19 23:29N 39°34' E 002°38'0 0.0
2017-Sep-19 22:59N 39°34' E 002°38'0 0.0
2017-Sep-19 22:29N 39°34' E 002°38'0 0.0
2017-Sep-19 21:59N 39°34' E 002°38'0 0.0
2017-Sep-19 21:29N 39°34' E 002°38'0 0.0
2017-Sep-19 20:59N 39°34' E 002°38'0 0.0
2017-Sep-19 20:29N 39°34' E 002°38'0 0.0
2017-Sep-19 19:59N 39°34' E 002°38'0 0.0
2017-Sep-19 19:29N 39°34' E 002°38'0 0.0
2017-Sep-19 18:59N 39°34' E 002°38'0 0.0
2017-Sep-19 18:29N 39°34' E 002°38'0 0.0
2017-Sep-19 17:56N 39°34' E 002°38'0 0.0
2017-Sep-19 17:29N 39°34' E 002°38'0 0.0
2017-Sep-19 16:59N 39°34' E 002°38'0 0.0
2017-Sep-19 16:29N 39°34' E 002°38'0 0.0
2017-Sep-19 15:59N 39°34' E 002°38'0 0.0
2017-Sep-19 15:29N 39°34' E 002°38'0 0.0
2017-Sep-19 14:59N 39°34' E 002°38'0 0.0
2017-Sep-19 14:29N 39°34' E 002°38'0 0.0
2017-Sep-19 13:59N 39°34' E 002°38'0 0.0
2017-Sep-19 13:29N 39°34' E 002°38'0 0.0
2017-Sep-19 12:59N 39°34' E 002°38'0 0.0
2017-Sep-19 12:29N 39°34' E 002°38'0 0.0
2017-Sep-19 11:59N 39°34' E 002°38'0 0.0
2017-Sep-19 11:29N 39°34' E 002°38'0 0.0
2017-Sep-19 10:59N 39°34' E 002°38'0 0.0
2017-Sep-19 10:29N 39°34' E 002°38'0 0.0
2017-Sep-19 09:59N 39°34' E 002°38'0 0.0
2017-Sep-19 09:29N 39°34' E 002°38'0 0.0
2017-Sep-19 08:59N 39°34' E 002°38'0 0.0
2017-Sep-19 08:29N 39°34' E 002°38'0 0.0
2017-Sep-19 08:00N 39°34' E 002°38'2 3.3
2017-Sep-19 07:30N 39°32' E 002°38'3 4.4
2017-Sep-19 06:51N 39°32' E 002°34'0 0.0
2017-Sep-19 06:27N 39°32' E 002°34'  
Track history (hours):
 
Tides and Currents Weather Stations Pressure Air Temp Water Temp Dewpoint Dewpoint Depression Visibility Wind Speed Wind Dir Waves Ship Positions

Moon Sand

Last reported at 2017-Sep-29 06:13 UTC. Time now 2017-Oct-20 07:22 UTC.
Position N 43°37' E 007°17'.
Warning: this ship's position is 21 days out of date.

Length 45 m; draft 2.7 m.

Type: Pleasure craft. MMSI: 319080200.

Date/timePositionNaut miles runAvg speedWind from/ knotsBaromVisibWave heightAir tempDewpointWater temp
2017-Sep-29 06:13N 43°37' E 007°17'310.9
2017-Sep-29 05:58N 43°35' E 007°15'510.3
2017-Sep-29 05:30N 43°32' E 007°10'4 0.3
2017-Sep-28 16:52N 43°32' E 007°05'6 9.9
2017-Sep-28 16:12N 43°35' E 007°13'6 0.7
2017-Sep-28 07:42N 43°39' E 007°19'311.9
2017-Sep-28 07:29N 43°37' E 007°16'611.8
2017-Sep-28 07:00N 43°33' E 007°10'  
2017-Sep-25 05:39N 43°32' E 007°06'110.5
2017-Sep-25 05:31N 43°31' E 007°05'510.1
2017-Sep-25 05:00N 43°26' E 007°02'63 9.8
2017-Sep-24 22:34N 42°37' E 006°08'410.8
2017-Sep-24 22:13N 42°35' E 006°05'210.8
2017-Sep-24 21:59N 42°33' E 006°02'510.6
2017-Sep-24 21:30N 42°29' E 005°57'510.6
2017-Sep-24 21:00N 42°26' E 005°52'510.4
2017-Sep-24 20:30N 42°22' E 005°47'510.0
2017-Sep-24 20:00N 42°19' E 005°42'5 9.8
2017-Sep-24 19:29N 42°15' E 005°37'510.5
2017-Sep-24 19:00N 42°11' E 005°32'510.4
2017-Sep-24 18:30N 42°08' E 005°27'5 9.5
2017-Sep-24 18:00N 42°05' E 005°23'510.3
2017-Sep-24 17:30N 42°01' E 005°18'510.6
2017-Sep-24 17:00N 41°57' E 005°13'510.4
2017-Sep-24 16:29N 41°53' E 005°08'174 9.9
2017-Sep-23 23:00N 39°51' E 002°24'510.1
2017-Sep-23 22:30N 39°47' E 002°20'510.0
2017-Sep-23 21:59N 39°43' E 002°16'5 9.7
2017-Sep-23 21:31N 39°39' E 002°13'4 7.1
2017-Sep-23 21:00N 39°36' E 002°13'610.5
2017-Sep-23 20:27N 39°30' E 002°15'510.5
2017-Sep-23 20:00N 39°27' E 002°20'15 0.4
2017-Sep-22 02:00N 39°34' E 002°38'0 0.0
2017-Sep-22 01:30N 39°34' E 002°38'0 0.0
2017-Sep-22 01:00N 39°34' E 002°38'0 0.0
2017-Sep-22 00:30N 39°34' E 002°38'0 0.0
2017-Sep-22 00:00N 39°34' E 002°38'0 0.0
2017-Sep-21 23:30N 39°34' E 002°38'0 0.0
2017-Sep-21 22:57N 39°34' E 002°38'0 0.0
2017-Sep-21 22:30N 39°34' E 002°38'0 0.0
2017-Sep-21 22:00N 39°34' E 002°38'0 0.0
2017-Sep-21 21:30N 39°34' E 002°38'0 0.0
2017-Sep-21 21:00N 39°34' E 002°38'0 0.0
2017-Sep-21 20:30N 39°34' E 002°38'0 0.0
2017-Sep-21 20:00N 39°34' E 002°38'0 0.0
2017-Sep-21 19:30N 39°34' E 002°38'0 0.0
2017-Sep-21 19:00N 39°34' E 002°38'0 0.0
2017-Sep-21 18:30N 39°34' E 002°38'0 0.0
2017-Sep-21 18:00N 39°34' E 002°38'0 0.0
2017-Sep-21 17:30N 39°34' E 002°38'0 0.0
2017-Sep-21 17:00N 39°34' E 002°38'0 0.0
2017-Sep-21 16:27N 39°34' E 002°38'0 0.0
2017-Sep-21 16:00N 39°34' E 002°38'0 0.0
2017-Sep-21 15:30N 39°34' E 002°38'0 0.0
2017-Sep-21 15:00N 39°34' E 002°38'0 0.0
2017-Sep-21 14:30N 39°34' E 002°38'0 0.0
2017-Sep-21 14:00N 39°34' E 002°38'0 0.0
2017-Sep-21 13:30N 39°34' E 002°38'0 0.0
2017-Sep-21 13:00N 39°34' E 002°38'0 0.0
2017-Sep-21 12:30N 39°34' E 002°38'0 0.0
2017-Sep-21 12:00N 39°34' E 002°38'0 0.0
2017-Sep-21 11:27N 39°34' E 002°38'0 0.0
2017-Sep-21 10:51N 39°34' E 002°38'0 0.0
2017-Sep-21 10:30N 39°34' E 002°38'0 0.0
2017-Sep-21 10:00N 39°34' E 002°38'0 0.0
2017-Sep-21 09:30N 39°34' E 002°38'0 0.0
2017-Sep-21 08:57N 39°34' E 002°38'0 0.0
2017-Sep-21 08:30N 39°34' E 002°38'0 0.0
2017-Sep-21 08:00N 39°34' E 002°38'0 0.0
2017-Sep-21 07:30N 39°34' E 002°38'0 0.0
2017-Sep-21 07:00N 39°34' E 002°38'0 0.0
2017-Sep-21 06:30N 39°34' E 002°38'0 0.0
2017-Sep-21 06:00N 39°34' E 002°38'0 0.0
2017-Sep-21 05:30N 39°34' E 002°38'0 0.0
2017-Sep-21 04:57N 39°34' E 002°38'0 0.0
2017-Sep-21 04:30N 39°34' E 002°38'0 0.0
2017-Sep-21 04:00N 39°34' E 002°38'0 0.0
2017-Sep-21 03:30N 39°34' E 002°38'0 0.0
2017-Sep-21 03:00N 39°34' E 002°38'0 0.0
2017-Sep-21 02:30N 39°34' E 002°38'0 0.0
2017-Sep-21 02:00N 39°34' E 002°38'0 0.0
2017-Sep-21 01:30N 39°34' E 002°38'0 0.0
2017-Sep-21 01:00N 39°34' E 002°38'0 0.0
2017-Sep-21 00:27N 39°34' E 002°38'0 0.0
2017-Sep-21 00:00N 39°34' E 002°38'0 0.0
2017-Sep-20 23:30N 39°34' E 002°38'0 0.0
2017-Sep-20 23:00N 39°34' E 002°38'0 0.0
2017-Sep-20 22:30N 39°34' E 002°38'0 0.0
2017-Sep-20 22:00N 39°34' E 002°38'0 0.0
2017-Sep-20 21:30N 39°34' E 002°38'0 0.0
2017-Sep-20 21:00N 39°34' E 002°38'0 0.0
2017-Sep-20 20:30N 39°34' E 002°38'0 0.0
2017-Sep-20 20:00N 39°34' E 002°38'0 0.0
2017-Sep-20 19:30N 39°34' E 002°38'0 0.0
2017-Sep-20 19:00N 39°34' E 002°38'0 0.0
2017-Sep-20 18:30N 39°34' E 002°38'0 0.0
2017-Sep-20 18:00N 39°34' E 002°38'0 0.0
2017-Sep-20 17:30N 39°34' E 002°38'0 0.0
2017-Sep-20 17:00N 39°34' E 002°38'0 0.0
2017-Sep-20 16:30N 39°34' E 002°38'0 0.0
2017-Sep-20 16:00N 39°34' E 002°38'0 0.0
2017-Sep-20 15:30N 39°34' E 002°38'0 0.0
2017-Sep-20 15:00N 39°34' E 002°38'0 0.0
2017-Sep-20 14:00N 39°34' E 002°38'0 0.0
2017-Sep-20 13:27N 39°34' E 002°38'0 0.0
2017-Sep-20 13:00N 39°34' E 002°38'0 0.0
2017-Sep-20 12:30N 39°34' E 002°38'0 0.0
2017-Sep-20 12:00N 39°34' E 002°38'0 0.0
2017-Sep-20 11:30N 39°34' E 002°38'0 0.0
2017-Sep-20 11:00N 39°34' E 002°38'0 0.0
2017-Sep-20 10:30N 39°34' E 002°38'0 0.0
2017-Sep-20 10:00N 39°34' E 002°38'0 0.0
2017-Sep-20 09:30N 39°34' E 002°38'0 0.0
2017-Sep-20 09:00N 39°34' E 002°38'0 0.0
2017-Sep-20 08:30N 39°34' E 002°38'0 0.0
2017-Sep-20 08:00N 39°34' E 002°38'0 0.0
2017-Sep-20 07:30N 39°34' E 002°38'0 0.0
2017-Sep-20 06:59N 39°34' E 002°38'0 0.0
2017-Sep-20 06:29N 39°34' E 002°38'0 0.0
2017-Sep-20 05:59N 39°34' E 002°38'0 0.0
2017-Sep-20 05:29N 39°34' E 002°38'0 0.0
2017-Sep-20 04:59N 39°34' E 002°38'0 0.0
2017-Sep-20 04:29N 39°34' E 002°38'0 0.0
2017-Sep-20 03:59N 39°34' E 002°38'0 0.0
2017-Sep-20 03:29N 39°34' E 002°38'0 0.0
2017-Sep-20 02:59N 39°34' E 002°38'0 0.0
2017-Sep-20 02:29N 39°34' E 002°38'0 0.0
2017-Sep-20 01:59N 39°34' E 002°38'0 0.0
2017-Sep-20 01:29N 39°34' E 002°38'0 0.0
2017-Sep-20 00:59N 39°34' E 002°38'0 0.0
2017-Sep-20 00:29N 39°34' E 002°38'0 0.0
2017-Sep-19 23:59N 39°34' E 002°38'0 0.0
2017-Sep-19 23:29N 39°34' E 002°38'0 0.0
2017-Sep-19 22:59N 39°34' E 002°38'0 0.0
2017-Sep-19 22:29N 39°34' E 002°38'0 0.0
2017-Sep-19 21:59N 39°34' E 002°38'0 0.0
2017-Sep-19 21:29N 39°34' E 002°38'0 0.0
2017-Sep-19 20:59N 39°34' E 002°38'0 0.0
2017-Sep-19 20:29N 39°34' E 002°38'0 0.0
2017-Sep-19 19:59N 39°34' E 002°38'0 0.0
2017-Sep-19 19:29N 39°34' E 002°38'0 0.0
2017-Sep-19 18:59N 39°34' E 002°38'0 0.0
2017-Sep-19 18:29N 39°34' E 002°38'0 0.0
2017-Sep-19 17:56N 39°34' E 002°38'0 0.0
2017-Sep-19 17:29N 39°34' E 002°38'0 0.0
2017-Sep-19 16:59N 39°34' E 002°38'0 0.0
2017-Sep-19 16:29N 39°34' E 002°38'0 0.0
2017-Sep-19 15:59N 39°34' E 002°38'0 0.0
2017-Sep-19 15:29N 39°34' E 002°38'0 0.0
2017-Sep-19 14:59N 39°34' E 002°38'0 0.0
2017-Sep-19 14:29N 39°34' E 002°38'0 0.0
2017-Sep-19 13:59N 39°34' E 002°38'0 0.0
2017-Sep-19 13:29N 39°34' E 002°38'0 0.0
2017-Sep-19 12:59N 39°34' E 002°38'0 0.0
2017-Sep-19 12:29N 39°34' E 002°38'0 0.0
2017-Sep-19 11:59N 39°34' E 002°38'0 0.0
2017-Sep-19 11:29N 39°34' E 002°38'0 0.0
2017-Sep-19 10:59N 39°34' E 002°38'0 0.0
2017-Sep-19 10:29N 39°34' E 002°38'0 0.0
2017-Sep-19 09:59N 39°34' E 002°38'0 0.0
2017-Sep-19 09:29N 39°34' E 002°38'0 0.0
2017-Sep-19 08:59N 39°34' E 002°38'0 0.0
2017-Sep-19 08:29N 39°34' E 002°38'0 0.0
2017-Sep-19 08:00N 39°34' E 002°38'2 3.3
2017-Sep-19 07:30N 39°32' E 002°38'3 4.4
2017-Sep-19 06:51N 39°32' E 002°34'0 0.0
2017-Sep-19 06:27N 39°32' E 002°34'  

Dump ship's entire track history